VTUU/UBP METAR and TAF weather

Enter ICAO airport designator
Station Type Date Time Source
VTUU METAR 2021/07/26 12:00 UTC NOAA

VTUU 261200Z 23004KT 200V260 9999 FEW040 SCT100 29/25 Q1003 NOSIG


Station Type Date Time Source
VTUU Decoded METAR 2021/07/26 12:00 UTC NOAA

Ubon Ratchathani, Thailand (VTUU) 15-15N 104-52E 127M
Jul 26, 2021 - 08:00 AM EDT / 2021.07.26 1200 UTC
Wind: from the SW (230 degrees) at 5 MPH (4 KT) (direction variable):0
Visibility: greater than 7 mile(s):0
Sky conditions: partly cloudy
Temperature: 84 F (29 C)
Dew Point: 77 F (25 C)
Relative Humidity: 79%
Pressure (altimeter): 29.62 in. Hg (1003 hPa)
ob: VTUU 261200Z 23004KT 200V260 9999 FEW040 SCT100 29/25 Q1003 NOSIG
cycle: 12

Station Type Date Time Source
VTUU TAF 2021/07/26 12:35 UTC NOAA

TAF VTUU 261100Z 2612/2712 25007KT 9999 FEW030
TEMPO 2616/2619 4500 RA BKN020

Example: see airport list